createdAt,value
2017-08-13T00:00:28.616Z,1015.85
2017-08-13T00:01:38.161Z,1015.8
2017-08-13T00:02:48.268Z,1015.85
2017-08-13T00:03:57.798Z,1015.93
2017-08-13T00:05:07.013Z,1015.89
2017-08-13T00:06:16.545Z,1015.87
2017-08-13T00:07:25.432Z,1015.9
2017-08-13T00:08:35.443Z,1015.88
2017-08-13T00:09:44.972Z,1015.89
2017-08-13T00:10:55.148Z,1015.87
2017-08-13T00:12:04.034Z,1015.94
2017-08-13T00:13:13.239Z,1015.9
2017-08-13T00:14:22.924Z,1015.91
2017-08-13T00:15:31.816Z,1015.96
2017-08-13T00:16:41.344Z,1015.99
2017-08-13T00:17:50.549Z,1015.98
2017-08-13T00:19:00.407Z,1015.96
2017-08-13T00:20:09.866Z,1015.95
2017-08-13T00:21:19.077Z,1015.94
2017-08-13T00:22:28.611Z,1015.95
2017-08-13T00:23:37.492Z,1015.93
2017-08-13T00:24:46.698Z,1015.98
2017-08-13T00:25:55.901Z,1015.96
2017-08-13T00:27:05.442Z,1015.98
2017-08-13T00:28:14.646Z,1015.98
2017-08-13T00:29:23.528Z,1016
2017-08-13T00:30:32.735Z,1015.96
2017-08-13T00:31:42.091Z,1015.95
2017-08-13T00:32:51.295Z,1015.98
2017-08-13T00:34:00.823Z,1015.98
2017-08-13T00:35:10.690Z,1015.98
2017-08-13T00:36:20.542Z,1016.01
2017-08-13T00:37:29.749Z,1016
2017-08-13T00:38:38.960Z,1015.97
2017-08-13T00:39:48.497Z,1015.93
2017-08-13T00:40:57.707Z,1015.98
2017-08-13T00:42:07.240Z,1015.94
2017-08-13T00:43:16.446Z,1016
2017-08-13T00:44:25.980Z,1015.97
2017-08-13T00:45:34.863Z,1015.96
2017-08-13T00:46:44.399Z,1015.95
2017-08-13T00:47:53.620Z,1016.01
2017-08-13T00:49:03.446Z,1015.97
2017-08-13T00:50:12.337Z,1016.01
2017-08-13T00:51:21.862Z,1015.99
2017-08-13T00:52:31.062Z,1015.99
2017-08-13T00:53:40.913Z,1016.01
2017-08-13T00:54:49.807Z,1015.98
2017-08-13T00:55:58.702Z,1016.01
2017-08-13T00:57:08.887Z,1015.98
2017-08-13T00:58:18.092Z,1016.01
2017-08-13T00:59:27.944Z,1015.98
2017-08-13T01:00:37.301Z,1016.01
2017-08-13T01:01:46.184Z,1015.98
2017-08-13T01:02:55.715Z,1015.96
2017-08-13T01:04:04.920Z,1015.98
2017-08-13T01:05:14.774Z,1015.95
2017-08-13T01:06:23.978Z,1015.98
2017-08-13T01:07:33.187Z,1015.96
2017-08-13T01:08:43.056Z,1015.96
2017-08-13T01:09:51.934Z,1015.96
2017-08-13T01:11:01.136Z,1015.96
2017-08-13T01:12:10.647Z,1015.95
2017-08-13T01:13:19.850Z,1015.98
2017-08-13T01:14:29.056Z,1015.98
2017-08-13T01:15:38.259Z,1015.95
2017-08-13T01:16:47.790Z,1015.96
2017-08-13T01:17:57.691Z,1015.97
2017-08-13T01:19:07.222Z,1015.99
2017-08-13T01:20:16.426Z,1016
2017-08-13T01:21:25.955Z,1016.02
2017-08-13T01:22:35.485Z,1016
2017-08-13T01:23:44.691Z,1016.02
2017-08-13T01:24:53.896Z,1016.02
2017-08-13T01:26:03.427Z,1016.01
2017-08-13T01:27:13.276Z,1016.02
2017-08-13T01:28:22.485Z,1015.97
2017-08-13T01:29:31.764Z,1015.96
2017-08-13T01:30:40.977Z,1015.97
2017-08-13T01:31:50.503Z,1016
2017-08-13T01:33:00.351Z,1016.01
2017-08-13T01:34:09.564Z,1016.01
2017-08-13T01:35:18.920Z,1016.05
2017-08-13T01:36:28.447Z,1016.05
2017-08-13T01:37:37.975Z,1016.07
2017-08-13T01:38:46.869Z,1016.1
2017-08-13T01:39:57.042Z,1016.11
2017-08-13T01:41:06.718Z,1016.11
2017-08-13T01:42:15.596Z,1016.09
2017-08-13T01:43:24.477Z,1016.09
2017-08-13T01:44:34.003Z,1016.1
2017-08-13T01:45:43.220Z,1016.12
2017-08-13T01:46:52.898Z,1016.11
2017-08-13T01:48:03.080Z,1016.16
2017-08-13T01:49:12.611Z,1016.17
2017-08-13T01:50:21.820Z,1016.16
2017-08-13T01:51:30.698Z,1016.19
2017-08-13T01:52:40.544Z,1016.2
2017-08-13T01:53:50.396Z,1016.25
2017-08-13T01:55:00.260Z,1016.22
2017-08-13T01:56:09.475Z,1016.24
2017-08-13T01:57:18.682Z,1016.25
2017-08-13T01:58:27.568Z,1016.25
2017-08-13T01:59:37.096Z,1016.26
2017-08-13T02:00:46.297Z,1016.25
2017-08-13T02:01:55.510Z,1016.28
2017-08-13T02:03:05.684Z,1016.28
2017-08-13T02:04:15.048Z,1016.29
2017-08-13T02:05:23.930Z,1016.26
2017-08-13T02:06:32.827Z,1016.3
2017-08-13T02:07:42.029Z,1016.25
2017-08-13T02:08:51.234Z,1016.28
2017-08-13T02:10:00.169Z,1016.3
2017-08-13T02:11:09.378Z,1016.31
2017-08-13T02:12:18.260Z,1016.35
2017-08-13T02:13:27.150Z,1016.34
2017-08-13T02:14:36.677Z,1016.36
2017-08-13T02:15:46.527Z,1016.32
2017-08-13T02:16:55.732Z,1016.31
2017-08-13T02:18:05.590Z,1016.3
2017-08-13T02:19:14.794Z,1016.33
2017-08-13T02:20:24.654Z,1016.39
2017-08-13T02:21:33.684Z,1016.36
2017-08-13T02:22:43.539Z,1016.34
2017-08-13T02:23:52.742Z,1016.33
2017-08-13T02:25:02.274Z,1016.29
2017-08-13T02:26:11.487Z,1016.33
2017-08-13T02:27:20.944Z,1016.34
2017-08-13T02:28:30.470Z,1016.4
2017-08-13T02:29:39.999Z,1016.39
2017-08-13T02:30:49.203Z,1016.42
2017-08-13T02:31:58.408Z,1016.42
2017-08-13T02:33:07.942Z,1016.44
2017-08-13T02:34:17.148Z,1016.44
2017-08-13T02:35:26.998Z,1016.45
2017-08-13T02:36:36.529Z,1016.45
2017-08-13T02:37:46.380Z,1016.47
2017-08-13T02:38:55.685Z,1016.44
2017-08-13T02:40:05.586Z,1016.46
2017-08-13T02:41:14.791Z,1016.41
2017-08-13T02:42:23.996Z,1016.38
2017-08-13T02:43:33.848Z,1016.36
2017-08-13T02:44:43.632Z,1016.38
2017-08-13T02:45:52.841Z,1016.39
2017-08-13T02:47:03.034Z,1016.43
2017-08-13T02:48:12.564Z,1016.42
2017-08-13T02:49:21.462Z,1016.46
2017-08-13T02:50:31.137Z,1016.51
2017-08-13T02:51:40.681Z,1016.43
2017-08-13T02:52:49.895Z,1016.43
2017-08-13T02:53:59.106Z,1016.47
2017-08-13T02:55:08.311Z,1016.44
2017-08-13T02:56:17.815Z,1016.5
2017-08-13T02:57:27.346Z,1016.47
2017-08-13T02:58:36.225Z,1016.5
2017-08-13T02:59:45.433Z,1016.48
2017-08-13T03:00:54.637Z,1016.48
2017-08-13T03:02:03.895Z,1016.49
2017-08-13T03:03:13.102Z,1016.52
2017-08-13T03:04:21.986Z,1016.51
2017-08-13T03:05:31.526Z,1016.48
2017-08-13T03:06:41.061Z,1016.53
2017-08-13T03:07:51.220Z,1016.51
2017-08-13T03:09:00.105Z,1016.56
2017-08-13T03:10:09.624Z,1016.54
2017-08-13T03:11:18.516Z,1016.56
2017-08-13T03:12:27.741Z,1016.58
2017-08-13T03:13:37.001Z,1016.59
2017-08-13T03:14:46.205Z,1016.62
2017-08-13T03:15:55.416Z,1016.62
2017-08-13T03:17:04.293Z,1016.59
2017-08-13T03:18:13.500Z,1016.63
2017-08-13T03:19:22.906Z,1016.67
2017-08-13T03:20:31.788Z,1016.68
2017-08-13T03:21:41.316Z,1016.68
2017-08-13T03:22:50.839Z,1016.66
2017-08-13T03:24:00.371Z,1016.66
2017-08-13T03:25:10.531Z,1016.7
2017-08-13T03:26:19.737Z,1016.67
2017-08-13T03:27:29.591Z,1016.7
2017-08-13T03:28:39.119Z,1016.71
2017-08-13T03:29:48.005Z,1016.74
2017-08-13T03:30:57.362Z,1016.7
2017-08-13T03:32:07.225Z,1016.72
2017-08-13T03:33:16.761Z,1016.78
2017-08-13T03:34:25.968Z,1016.76
2017-08-13T03:35:34.861Z,1016.77
2017-08-13T03:36:44.123Z,1016.71
2017-08-13T03:37:53.652Z,1016.77
2017-08-13T03:39:03.186Z,1016.76
2017-08-13T03:40:12.713Z,1016.8
2017-08-13T03:41:21.598Z,1016.8
2017-08-13T03:42:30.805Z,1016.83
2017-08-13T03:43:39.682Z,1016.8
2017-08-13T03:44:48.885Z,1016.83
2017-08-13T03:45:57.790Z,1016.82
2017-08-13T03:47:07.313Z,1016.83
2017-08-13T03:48:17.462Z,1016.88
2017-08-13T03:49:26.339Z,1016.86
2017-08-13T03:50:35.546Z,1016.85
2017-08-13T03:51:45.405Z,1016.91
2017-08-13T03:52:54.929Z,1016.89
2017-08-13T03:54:04.663Z,1016.88
2017-08-13T03:55:14.194Z,1016.95
2017-08-13T03:56:23.078Z,1016.91
2017-08-13T03:57:31.965Z,1016.91
2017-08-13T03:58:41.169Z,1016.95
2017-08-13T03:59:50.206Z,1016.96
2017-08-13T04:01:00.064Z,1016.95
2017-08-13T04:02:09.268Z,1017.01
2017-08-13T04:03:18.479Z,1016.97
2017-08-13T04:04:27.365Z,1016.98
2017-08-13T04:05:36.681Z,1017.01
2017-08-13T04:06:46.530Z,1017.02
2017-08-13T04:07:55.410Z,1017.05
2017-08-13T04:09:04.626Z,1017.03
2017-08-13T04:10:13.507Z,1017.09
2017-08-13T04:11:22.863Z,1017.12
2017-08-13T04:12:32.389Z,1017.11
2017-08-13T04:13:41.269Z,1017.09
2017-08-13T04:14:50.476Z,1017.12
2017-08-13T04:16:00.008Z,1017.13
2017-08-13T04:17:09.689Z,1017.17
2017-08-13T04:18:18.892Z,1017.16
2017-08-13T04:19:28.418Z,1017.18
2017-08-13T04:20:37.300Z,1017.17
2017-08-13T04:21:46.184Z,1017.21
2017-08-13T04:22:55.447Z,1017.2
2017-08-13T04:24:05.297Z,1017.22
2017-08-13T04:25:14.824Z,1017.25
2017-08-13T04:26:24.029Z,1017.26
2017-08-13T04:27:33.235Z,1017.25
2017-08-13T04:28:42.224Z,1017.21
2017-08-13T04:29:51.115Z,1017.21
2017-08-13T04:31:00.318Z,1017.24
2017-08-13T04:32:09.851Z,1017.29
2017-08-13T04:33:19.056Z,1017.31
2017-08-13T04:34:29.207Z,1017.31
2017-08-13T04:35:38.416Z,1017.39
2017-08-13T04:36:47.621Z,1017.4
2017-08-13T04:37:57.479Z,1017.35
2017-08-13T04:39:06.683Z,1017.42
2017-08-13T04:40:15.566Z,1017.42
2017-08-13T04:41:25.415Z,1017.45
2017-08-13T04:42:34.620Z,1017.43
2017-08-13T04:43:44.145Z,1017.48
2017-08-13T04:44:53.355Z,1017.5
2017-08-13T04:46:02.985Z,1017.46
2017-08-13T04:47:12.520Z,1017.46
2017-08-13T04:48:21.724Z,1017.52
2017-08-13T04:49:30.927Z,1017.48
2017-08-13T04:50:40.128Z,1017.5
2017-08-13T04:51:49.432Z,1017.51
2017-08-13T04:52:58.979Z,1017.49
2017-08-13T04:54:08.199Z,1017.46
2017-08-13T04:55:17.723Z,1017.49
2017-08-13T04:56:26.629Z,1017.5
2017-08-13T04:57:36.137Z,1017.5
2017-08-13T04:58:45.988Z,1017.56
2017-08-13T04:59:54.874Z,1017.54
2017-08-13T05:01:04.082Z,1017.55
2017-08-13T05:02:12.962Z,1017.59
2017-08-13T05:03:21.899Z,1017.58
2017-08-13T05:04:30.778Z,1017.62
2017-08-13T05:05:39.983Z,1017.59
2017-08-13T05:06:48.867Z,1017.58
2017-08-13T05:07:58.075Z,1017.58
2017-08-13T05:09:08.405Z,1017.62
2017-08-13T05:10:17.612Z,1017.61
2017-08-13T05:11:26.823Z,1017.61
2017-08-13T05:12:36.028Z,1017.63
2017-08-13T05:13:45.255Z,1017.69
2017-08-13T05:14:54.476Z,1017.67
2017-08-13T05:16:03.358Z,1017.68
2017-08-13T05:17:12.247Z,1017.72
2017-08-13T05:18:21.459Z,1017.76
2017-08-13T05:19:30.342Z,1017.76
2017-08-13T05:20:39.921Z,1017.77
2017-08-13T05:21:48.813Z,1017.81
2017-08-13T05:22:58.021Z,1017.79
2017-08-13T05:24:07.552Z,1017.8
2017-08-13T05:25:17.084Z,1017.82
2017-08-13T05:26:26.445Z,1017.83
2017-08-13T05:27:35.328Z,1017.86
2017-08-13T05:28:44.864Z,1017.89
2017-08-13T05:29:54.072Z,1017.88
2017-08-13T05:31:03.279Z,1017.91
2017-08-13T05:32:13.162Z,1017.88
2017-08-13T05:33:23.010Z,1017.95
2017-08-13T05:34:32.221Z,1018.01
2017-08-13T05:35:41.751Z,1018.04
2017-08-13T05:36:51.293Z,1018.04
2017-08-13T05:38:01.251Z,1018.04
2017-08-13T05:39:10.785Z,1018.05
2017-08-13T05:40:20.314Z,1018.07
2017-08-13T05:41:29.527Z,1018.09
2017-08-13T05:42:39.069Z,1018.11
2017-08-13T05:43:48.434Z,1018.13
2017-08-13T05:44:57.322Z,1018.13
2017-08-13T05:46:07.175Z,1018.14
2017-08-13T05:47:16.704Z,1018.2
2017-08-13T05:48:25.589Z,1018.19
2017-08-13T05:49:34.948Z,1018.2
2017-08-13T05:50:44.156Z,1018.25
2017-08-13T05:51:53.369Z,1018.23
2017-08-13T05:53:02.897Z,1018.25
2017-08-13T05:54:12.116Z,1018.27
2017-08-13T05:55:21.474Z,1018.23
2017-08-13T05:56:30.680Z,1018.26
2017-08-13T05:57:39.900Z,1018.21
2017-08-13T05:58:49.108Z,1018.3
2017-08-13T05:59:58.640Z,1018.25
2017-08-13T06:01:08.172Z,1018.29
2017-08-13T06:02:18.028Z,1018.3
2017-08-13T06:03:26.913Z,1018.29
2017-08-13T06:04:36.126Z,1018.29
2017-08-13T06:05:45.334Z,1018.34
2017-08-13T06:06:54.215Z,1018.31
2017-08-13T06:08:03.420Z,1018.33
2017-08-13T06:09:12.626Z,1018.34
2017-08-13T06:10:21.837Z,1018.37
2017-08-13T06:11:31.045Z,1018.4
2017-08-13T06:12:40.557Z,1018.42
2017-08-13T06:13:50.393Z,1018.45
2017-08-13T06:14:59.733Z,1018.48
2017-08-13T06:16:09.410Z,1018.48
2017-08-13T06:17:18.618Z,1018.51
2017-08-13T06:18:28.676Z,1018.54
2017-08-13T06:19:37.882Z,1018.59
2017-08-13T06:20:47.092Z,1018.61
2017-08-13T06:21:56.974Z,1018.62
2017-08-13T06:23:05.858Z,1018.65
2017-08-13T06:24:15.120Z,1018.66
2017-08-13T06:25:24.661Z,1018.62
2017-08-13T06:26:33.866Z,1018.64
2017-08-13T06:27:43.082Z,1018.62
2017-08-13T06:28:52.287Z,1018.66
2017-08-13T06:30:02.074Z,1018.7
2017-08-13T06:31:11.280Z,1018.67
2017-08-13T06:32:21.459Z,1018.7
2017-08-13T06:33:30.996Z,1018.71
2017-08-13T06:34:39.885Z,1018.79
2017-08-13T06:35:49.198Z,1018.77
2017-08-13T06:36:58.443Z,1018.76
2017-08-13T06:38:07.974Z,1018.83
2017-08-13T06:39:17.184Z,1018.78
2017-08-13T06:40:27.033Z,1018.82
2017-08-13T06:41:37.056Z,1018.87
2017-08-13T06:42:46.261Z,1018.85
2017-08-13T06:43:55.471Z,1018.88
2017-08-13T06:45:05.002Z,1018.87
2017-08-13T06:46:14.581Z,1018.89
2017-08-13T06:47:23.763Z,1018.96
2017-08-13T06:48:32.967Z,1018.93
2017-08-13T06:49:42.502Z,1018.98
2017-08-13T06:50:51.393Z,1019
2017-08-13T06:52:00.927Z,1018.99
2017-08-13T06:53:10.140Z,1019.03
2017-08-13T06:54:19.048Z,1019.06
2017-08-13T06:55:28.256Z,1019.07
2017-08-13T06:56:38.105Z,1019.1
2017-08-13T06:57:46.995Z,1019.13
2017-08-13T06:58:56.256Z,1019.17
2017-08-13T07:00:05.143Z,1019.19
2017-08-13T07:01:14.674Z,1019.14
2017-08-13T07:02:23.878Z,1019.15
2017-08-13T07:03:33.732Z,1019.15
2017-08-13T07:04:42.669Z,1019.12
2017-08-13T07:05:51.560Z,1019.15
2017-08-13T07:07:01.095Z,1019.19
2017-08-13T07:08:10.622Z,1019.16
2017-08-13T07:09:20.155Z,1019.12
2017-08-13T07:10:29.846Z,1019.15
2017-08-13T07:11:39.148Z,1019.15
2017-08-13T07:12:48.359Z,1019.14
2017-08-13T07:13:59.754Z,1019.13
2017-08-13T07:15:08.648Z,1019.15
2017-08-13T07:16:18.424Z,1019.16
2017-08-13T07:17:27.636Z,1019.17
2017-08-13T07:18:36.847Z,1019.15
2017-08-13T07:19:46.387Z,1019.11
2017-08-13T07:20:56.299Z,1019.17
2017-08-13T07:22:06.006Z,1019.23
2017-08-13T07:23:15.237Z,1019.24
2017-08-13T07:24:24.884Z,1019.29
2017-08-13T07:25:34.414Z,1019.27
2017-08-13T07:26:44.276Z,1019.22
2017-08-13T07:27:53.487Z,1019.31
2017-08-13T07:29:02.712Z,1019.35
2017-08-13T07:30:11.919Z,1019.29
2017-08-13T07:31:20.809Z,1019.35
2017-08-13T07:32:30.342Z,1019.36
2017-08-13T07:33:39.981Z,1019.46
2017-08-13T07:34:49.195Z,1019.44
2017-08-13T07:35:58.080Z,1019.44
2017-08-13T07:37:07.606Z,1019.48
2017-08-13T07:38:16.500Z,1019.5
2017-08-13T07:39:26.340Z,1019.54
2017-08-13T07:40:35.667Z,1019.51
2017-08-13T07:41:46.513Z,1019.54
2017-08-13T07:42:56.446Z,1019.52
2017-08-13T07:44:05.895Z,1019.55
2017-08-13T07:45:15.574Z,1019.53
2017-08-13T07:46:24.457Z,1019.56
2017-08-13T07:47:33.669Z,1019.58
2017-08-13T07:48:43.205Z,1019.59
2017-08-13T07:49:52.414Z,1019.64
2017-08-13T07:51:02.674Z,1019.69
2017-08-13T07:52:11.557Z,1019.7
2017-08-13T07:53:21.099Z,1019.68
2017-08-13T07:54:30.316Z,1019.7
2017-08-13T07:55:39.846Z,1019.7
2017-08-13T07:56:48.886Z,1019.69
2017-08-13T07:57:57.780Z,1019.76
2017-08-13T07:59:07.313Z,1019.72
2017-08-13T08:00:17.491Z,1019.73
2017-08-13T08:01:26.707Z,1019.79
2017-08-13T08:02:35.929Z,1019.75
2017-08-13T08:03:45.135Z,1019.76
2017-08-13T08:04:54.021Z,1019.78
2017-08-13T08:06:03.232Z,1019.8
2017-08-13T08:07:12.763Z,1019.77
2017-08-13T08:08:22.309Z,1019.82
2017-08-13T08:09:32.181Z,1019.77
2017-08-13T08:10:42.051Z,1019.8
2017-08-13T08:11:51.258Z,1019.85
2017-08-13T08:13:01.264Z,1019.86
2017-08-13T08:14:10.470Z,1019.8
2017-08-13T08:15:19.682Z,1019.81
2017-08-13T08:16:28.892Z,1019.85
2017-08-13T08:17:38.101Z,1019.84
2017-08-13T08:18:46.987Z,1019.87
2017-08-13T08:19:56.851Z,1019.86
2017-08-13T08:21:06.061Z,1019.86
2017-08-13T08:22:15.597Z,1019.87
2017-08-13T08:23:25.453Z,1019.86
2017-08-13T08:24:34.981Z,1019.84
2017-08-13T08:25:44.188Z,1019.82
2017-08-13T08:26:53.394Z,1019.85
2017-08-13T08:28:02.921Z,1019.86
2017-08-13T08:29:11.809Z,1019.84
2017-08-13T08:30:21.355Z,1019.81
2017-08-13T08:31:30.564Z,1019.85
2017-08-13T08:32:39.449Z,1019.84
2017-08-13T08:33:49.302Z,1019.87
2017-08-13T08:34:58.513Z,1019.82
2017-08-13T08:36:08.141Z,1019.89
2017-08-13T08:37:17.085Z,1019.87
2017-08-13T08:38:26.697Z,1019.9
2017-08-13T08:39:36.320Z,1019.93
2017-08-13T08:40:45.584Z,1019.97
2017-08-13T08:41:54.814Z,1019.95
2017-08-13T08:43:04.145Z,1019.92
2017-08-13T08:44:13.385Z,1019.96
2017-08-13T08:45:23.166Z,1019.98
2017-08-13T08:46:32.985Z,1019.99
2017-08-13T08:47:42.258Z,1020.03
2017-08-13T08:48:51.465Z,1020.06
2017-08-13T08:50:00.996Z,1020.06
2017-08-13T08:51:10.255Z,1020.05
2017-08-13T08:52:19.459Z,1020.1
2017-08-13T08:53:28.349Z,1020.1
2017-08-13T08:54:37.559Z,1020.09
2017-08-13T08:55:47.096Z,1020.12
2017-08-13T08:56:56.605Z,1020.09
2017-08-13T08:58:05.489Z,1020.17
2017-08-13T08:59:14.378Z,1020.15
2017-08-13T09:00:23.915Z,1020.12
2017-08-13T09:01:33.124Z,1020.15
2017-08-13T09:02:42.983Z,1020.12
2017-08-13T09:03:52.515Z,1020.16
2017-08-13T09:05:01.724Z,1020.13
2017-08-13T09:06:10.940Z,1020.2
2017-08-13T09:07:19.827Z,1020.17
2017-08-13T09:08:29.513Z,1020.21
2017-08-13T09:09:39.371Z,1020.22
2017-08-13T09:10:48.578Z,1020.24
2017-08-13T09:11:57.785Z,1020.27
2017-08-13T09:13:06.994Z,1020.27
2017-08-13T09:14:16.046Z,1020.3
2017-08-13T09:15:24.935Z,1020.35
2017-08-13T09:16:34.143Z,1020.35
2017-08-13T09:17:43.041Z,1020.35
2017-08-13T09:18:52.588Z,1020.36
2017-08-13T09:20:02.133Z,1020.39
2017-08-13T09:21:11.671Z,1020.4
2017-08-13T09:22:21.207Z,1020.42
2017-08-13T09:23:30.436Z,1020.48
2017-08-13T09:24:39.651Z,1020.47
2017-08-13T09:25:49.010Z,1020.42
2017-08-13T09:26:57.893Z,1020.44
2017-08-13T09:28:07.433Z,1020.46
2017-08-13T09:29:16.670Z,1020.51
2017-08-13T09:30:26.203Z,1020.52
2017-08-13T09:31:35.293Z,1020.56
2017-08-13T09:32:44.500Z,1020.56
2017-08-13T09:33:53.385Z,1020.58
2017-08-13T09:35:02.271Z,1020.54
2017-08-13T09:36:11.803Z,1020.51
2017-08-13T09:37:21.586Z,1020.55
2017-08-13T09:38:30.803Z,1020.55
2017-08-13T09:39:40.337Z,1020.62
2017-08-13T09:40:49.550Z,1020.61
2017-08-13T09:41:59.089Z,1020.63
2017-08-13T09:43:07.970Z,1020.59
2017-08-13T09:44:17.177Z,1020.6
2017-08-13T09:45:26.384Z,1020.62
2017-08-13T09:46:35.278Z,1020.6
2017-08-13T09:47:44.163Z,1020.62
2017-08-13T09:48:53.530Z,1020.65
2017-08-13T09:50:02.738Z,1020.65
2017-08-13T09:51:12.274Z,1020.67
2017-08-13T09:52:21.160Z,1020.68
2017-08-13T09:53:30.698Z,1020.63
2017-08-13T09:54:39.688Z,1020.69
2017-08-13T09:55:49.217Z,1020.72
2017-08-13T09:56:58.431Z,1020.71
2017-08-13T09:58:08.283Z,1020.7
2017-08-13T09:59:17.827Z,1020.71
2017-08-13T10:00:27.734Z,1020.77
2017-08-13T10:01:37.268Z,1020.76
2017-08-13T10:02:46.498Z,1020.77
2017-08-13T10:03:55.714Z,1020.79
2017-08-13T10:05:04.611Z,1020.79
2017-08-13T10:06:13.921Z,1020.77
2017-08-13T10:07:22.814Z,1020.8
2017-08-13T10:08:31.699Z,1020.85
2017-08-13T10:09:40.911Z,1020.85
2017-08-13T10:10:49.798Z,1020.88
2017-08-13T10:11:59.721Z,1020.86
2017-08-13T10:13:08.627Z,1020.87
2017-08-13T10:14:17.852Z,1020.88
2017-08-13T10:15:27.394Z,1020.88
2017-08-13T10:16:37.251Z,1020.87
2017-08-13T10:17:46.841Z,1020.89
2017-08-13T10:18:56.391Z,1020.87
2017-08-13T10:20:05.918Z,1020.82
2017-08-13T10:21:15.801Z,1020.83
2017-08-13T10:22:26.066Z,1020.82
2017-08-13T10:23:36.075Z,1020.85
2017-08-13T10:24:45.287Z,1020.83
2017-08-13T10:25:55.232Z,1020.79
2017-08-13T10:27:04.121Z,1020.77
2017-08-13T10:28:13.979Z,1020.79
2017-08-13T10:29:23.341Z,1020.76
2017-08-13T10:30:33.190Z,1020.79
2017-08-13T10:31:42.721Z,1020.78
2017-08-13T10:32:51.926Z,1020.8
2017-08-13T10:34:01.136Z,1020.78
2017-08-13T10:35:11.314Z,1020.81
2017-08-13T10:36:20.200Z,1020.78
2017-08-13T10:37:29.410Z,1020.81
2017-08-13T10:38:38.619Z,1020.79
2017-08-13T10:39:48.149Z,1020.81
2017-08-13T10:40:57.565Z,1020.83
2017-08-13T10:42:07.183Z,1020.82
2017-08-13T10:43:17.356Z,1020.8
2017-08-13T10:44:26.983Z,1020.81
2017-08-13T10:45:36.073Z,1020.76
2017-08-13T10:46:45.036Z,1020.79
2017-08-13T10:47:54.585Z,1020.78
2017-08-13T10:49:04.147Z,1020.83
2017-08-13T10:50:13.360Z,1020.83
2017-08-13T10:51:23.267Z,1020.86
2017-08-13T10:52:32.845Z,1020.86
2017-08-13T10:53:42.061Z,1020.91
2017-08-13T10:54:51.624Z,1020.94
2017-08-13T10:56:00.842Z,1020.9
2017-08-13T10:57:09.727Z,1020.92
2017-08-13T10:58:18.716Z,1020.94
2017-08-13T10:59:28.678Z,1020.95
2017-08-13T11:00:38.212Z,1020.98
2017-08-13T11:01:47.504Z,1020.96
2017-08-13T11:02:57.408Z,1020.98
2017-08-13T11:04:06.391Z,1020.96
2017-08-13T11:05:16.305Z,1020.93
2017-08-13T11:06:25.861Z,1020.88
2017-08-13T11:07:35.101Z,1020.91
2017-08-13T11:08:44.316Z,1020.86
2017-08-13T11:09:53.207Z,1020.91
2017-08-13T11:11:03.067Z,1020.93
2017-08-13T11:12:11.988Z,1020.89
2017-08-13T11:13:21.203Z,1020.88
2017-08-13T11:14:30.735Z,1020.88
2017-08-13T11:15:40.283Z,1020.85
2017-08-13T11:16:49.166Z,1020.87
2017-08-13T11:17:58.371Z,1020.89
2017-08-13T11:19:07.905Z,1020.84
2017-08-13T11:20:17.445Z,1020.86
2017-08-13T11:21:26.707Z,1020.86
2017-08-13T11:22:36.239Z,1020.96
2017-08-13T11:23:45.773Z,1020.91
2017-08-13T11:24:54.656Z,1020.9
2017-08-13T11:26:03.861Z,1020.89
2017-08-13T11:27:13.718Z,1020.93
2017-08-13T11:28:22.923Z,1020.98
2017-08-13T11:29:31.810Z,1020.95
2017-08-13T11:30:41.341Z,1020.95
2017-08-13T11:31:50.232Z,1020.93
2017-08-13T11:32:59.765Z,1020.91
2017-08-13T11:34:08.656Z,1020.87
2017-08-13T11:35:17.866Z,1020.91
2017-08-13T11:36:27.094Z,1020.87
2017-08-13T11:37:36.954Z,1020.89
2017-08-13T11:38:46.214Z,1020.93
2017-08-13T11:39:55.746Z,1020.94
2017-08-13T11:41:05.600Z,1020.96
2017-08-13T11:42:14.486Z,1021
2017-08-13T11:43:24.346Z,1021
2017-08-13T11:44:33.239Z,1020.98
2017-08-13T11:45:43.100Z,1020.97
2017-08-13T11:46:53.285Z,1020.98
2017-08-13T11:48:02.821Z,1020.97
2017-08-13T11:49:12.028Z,1020.98
2017-08-13T11:50:21.559Z,1020.97
2017-08-13T11:51:31.089Z,1020.98
2017-08-13T11:52:40.296Z,1020.95
2017-08-13T11:53:49.828Z,1021
2017-08-13T11:54:58.708Z,1020.99
2017-08-13T11:56:07.689Z,1020.99
2017-08-13T11:57:16.898Z,1020.98
2017-08-13T11:58:26.119Z,1020.97
2017-08-13T11:59:35.654Z,1020.98
2017-08-13T12:00:44.542Z,1021.03
2017-08-13T12:01:53.753Z,1021.04
2017-08-13T12:03:03.291Z,1021.06
2017-08-13T12:04:12.187Z,1021.06
2017-08-13T12:05:21.726Z,1021.05
2017-08-13T12:06:30.937Z,1021.08
2017-08-13T12:07:40.467Z,1021.05
2017-08-13T12:08:49.679Z,1020.97
2017-08-13T12:09:58.884Z,1021
2017-08-13T12:11:08.418Z,1021.03
2017-08-13T12:12:17.307Z,1021.02
2017-08-13T12:13:26.513Z,1021.04
2017-08-13T12:14:35.720Z,1021.1
2017-08-13T12:15:45.251Z,1021.08
2017-08-13T12:16:54.142Z,1021.07
2017-08-13T12:18:03.675Z,1021.08
2017-08-13T12:19:12.884Z,1021.14
2017-08-13T12:20:21.769Z,1021.08
2017-08-13T12:21:30.978Z,1021.1
2017-08-13T12:22:39.870Z,1021.07
2017-08-13T12:23:48.756Z,1021.11
2017-08-13T12:24:57.642Z,1021.1
2017-08-13T12:26:07.187Z,1021.11
2017-08-13T12:27:16.404Z,1021.09
2017-08-13T12:28:25.612Z,1021.14
2017-08-13T12:29:34.499Z,1021.15
2017-08-13T12:30:43.434Z,1021.2
2017-08-13T12:31:52.974Z,1021.18
2017-08-13T12:33:02.187Z,1021.19
2017-08-13T12:34:11.396Z,1021.15
2017-08-13T12:35:20.612Z,1021.13
2017-08-13T12:36:30.147Z,1021.14
2017-08-13T12:37:39.037Z,1021.17
2017-08-13T12:38:48.578Z,1021.19
2017-08-13T12:39:57.463Z,1021.13
2017-08-13T12:41:07.313Z,1021.16
2017-08-13T12:42:16.859Z,1021.19
2017-08-13T12:43:26.391Z,1021.23
2017-08-13T12:44:35.600Z,1021.2
2017-08-13T12:45:45.136Z,1021.22
2017-08-13T12:46:54.361Z,1021.24
2017-08-13T12:48:03.492Z,1021.2
2017-08-13T12:49:12.395Z,1021.22
2017-08-13T12:50:21.617Z,1021.24
2017-08-13T12:51:30.842Z,1021.26
2017-08-13T12:52:39.755Z,1021.3
2017-08-13T12:53:49.347Z,1021.24
2017-08-13T12:54:58.258Z,1021.28
2017-08-13T12:56:07.482Z,1021.31
2017-08-13T12:57:16.381Z,1021.34
2017-08-13T12:58:25.606Z,1021.33
2017-08-13T12:59:34.661Z,1021.34
2017-08-13T13:00:43.886Z,1021.29
2017-08-13T13:01:53.484Z,1021.31
2017-08-13T13:03:02.383Z,1021.35
2017-08-13T13:04:11.943Z,1021.33
2017-08-13T13:05:21.340Z,1021.36
2017-08-13T13:06:30.275Z,1021.39
2017-08-13T13:07:39.500Z,1021.43
2017-08-13T13:08:48.747Z,1021.41
2017-08-13T13:09:57.977Z,1021.36
2017-08-13T13:11:07.200Z,1021.36
2017-08-13T13:12:16.748Z,1021.35
2017-08-13T13:13:25.651Z,1021.39
2017-08-13T13:14:35.199Z,1021.36
2017-08-13T13:15:44.101Z,1021.4
2017-08-13T13:16:53.009Z,1021.38
2017-08-13T13:18:01.908Z,1021.36
2017-08-13T13:19:11.133Z,1021.4
2017-08-13T13:20:20.038Z,1021.4
2017-08-13T13:21:29.267Z,1021.38
2017-08-13T13:22:39.000Z,1021.31
2017-08-13T13:23:48.226Z,1021.41
2017-08-13T13:24:57.452Z,1021.41
2017-08-13T13:26:07.009Z,1021.45
2017-08-13T13:27:15.912Z,1021.49
2017-08-13T13:28:25.304Z,1021.5
2017-08-13T13:29:34.205Z,1021.35
2017-08-13T13:30:43.113Z,1021.54
2017-08-13T13:31:52.016Z,1021.44
2017-08-13T13:33:01.248Z,1021.33
2017-08-13T13:34:10.978Z,1021.49
2017-08-13T13:35:20.212Z,1021.4
2017-08-13T13:36:29.463Z,1021.51
2017-08-13T13:37:38.740Z,1021.39
2017-08-13T13:38:47.972Z,1021.38
2017-08-13T13:39:58.151Z,1021.42
2017-08-13T13:41:07.382Z,1021.43
2017-08-13T13:42:16.938Z,1021.5
2017-08-13T13:43:26.818Z,1021.61
2017-08-13T13:44:35.721Z,1021.56
2017-08-13T13:45:44.771Z,1021.46
2017-08-13T13:46:53.666Z,1021.4
2017-08-13T13:48:02.561Z,1021.52
2017-08-13T13:49:11.783Z,1021.43
2017-08-13T13:50:21.329Z,1021.45
2017-08-13T13:51:30.490Z,1021.5
2017-08-13T13:52:40.038Z,1021.64
2017-08-13T13:53:49.257Z,1021.63
2017-08-13T13:54:58.153Z,1021.71
2017-08-13T13:56:07.378Z,1021.69
2017-08-13T13:57:16.805Z,1021.58
2017-08-13T13:58:25.703Z,1021.69
2017-08-13T13:59:34.945Z,1021.66
2017-08-13T14:00:43.852Z,1021.61
2017-08-13T14:01:53.076Z,1021.65